sensor_id;sensor_type;location;lat;lon;timestamp;temperature;humidity
45685;DHT22;46836;48.388;16.210;2023-10-31T00:02:12;17.00;99.90
45685;DHT22;46836;48.388;16.210;2023-10-31T00:04:39;17.00;99.90
45685;DHT22;46836;48.388;16.210;2023-10-31T00:07:07;17.00;99.90
45685;DHT22;46836;48.388;16.210;2023-10-31T00:09:34;17.00;99.90
45685;DHT22;46836;48.388;16.210;2023-10-31T00:12:01;17.00;99.90
45685;DHT22;46836;48.388;16.210;2023-10-31T00:14:28;17.00;99.90
45685;DHT22;46836;48.388;16.210;2023-10-31T00:17:00;17.00;99.90
45685;DHT22;46836;48.388;16.210;2023-10-31T00:19:27;17.10;99.90
45685;DHT22;46836;48.388;16.210;2023-10-31T00:21:55;17.10;99.90
45685;DHT22;46836;48.388;16.210;2023-10-31T00:24:22;17.10;99.90
45685;DHT22;46836;48.388;16.210;2023-10-31T00:26:49;17.10;99.90
45685;DHT22;46836;48.388;16.210;2023-10-31T00:29:16;17.10;99.90
45685;DHT22;46836;48.388;16.210;2023-10-31T00:31:44;17.20;99.90
45685;DHT22;46836;48.388;16.210;2023-10-31T00:34:11;17.20;99.90
45685;DHT22;46836;48.388;16.210;2023-10-31T00:36:39;17.30;99.90
45685;DHT22;46836;48.388;16.210;2023-10-31T00:39:06;17.30;99.90
45685;DHT22;46836;48.388;16.210;2023-10-31T00:41:33;17.30;99.90
45685;DHT22;46836;48.388;16.210;2023-10-31T00:44:00;17.30;99.90
45685;DHT22;46836;48.388;16.210;2023-10-31T00:46:27;17.40;99.90
45685;DHT22;46836;48.388;16.210;2023-10-31T00:48:54;17.40;99.90
45685;DHT22;46836;48.388;16.210;2023-10-31T00:51:21;17.40;99.90
45685;DHT22;46836;48.388;16.210;2023-10-31T00:53:49;17.40;99.90
45685;DHT22;46836;48.388;16.210;2023-10-31T00:56:16;17.40;99.90
45685;DHT22;46836;48.388;16.210;2023-10-31T00:58:43;17.40;99.90
45685;DHT22;46836;48.388;16.210;2023-10-31T01:01:10;17.40;99.90
45685;DHT22;46836;48.388;16.210;2023-10-31T01:03:37;17.40;99.90
45685;DHT22;46836;48.388;16.210;2023-10-31T01:06:04;17.50;99.90
45685;DHT22;46836;48.388;16.210;2023-10-31T01:08:32;17.50;99.90
45685;DHT22;46836;48.388;16.210;2023-10-31T01:10:59;17.50;99.90
45685;DHT22;46836;48.388;16.210;2023-10-31T01:13:26;17.50;99.90
45685;DHT22;46836;48.388;16.210;2023-10-31T01:15:53;17.50;99.90
45685;DHT22;46836;48.388;16.210;2023-10-31T01:18:20;17.50;99.90
45685;DHT22;46836;48.388;16.210;2023-10-31T01:20:47;17.50;99.90
45685;DHT22;46836;48.388;16.210;2023-10-31T01:23:14;17.50;99.90
45685;DHT22;46836;48.388;16.210;2023-10-31T01:25:42;17.50;99.90
45685;DHT22;46836;48.388;16.210;2023-10-31T01:28:09;17.50;99.90
45685;DHT22;46836;48.388;16.210;2023-10-31T01:30:36;17.50;99.90
45685;DHT22;46836;48.388;16.210;2023-10-31T01:33:04;17.50;99.90
45685;DHT22;46836;48.388;16.210;2023-10-31T01:35:31;17.60;99.90
45685;DHT22;46836;48.388;16.210;2023-10-31T01:37:58;17.60;99.90
45685;DHT22;46836;48.388;16.210;2023-10-31T01:40:25;17.60;99.90
45685;DHT22;46836;48.388;16.210;2023-10-31T01:42:52;17.60;99.90
45685;DHT22;46836;48.388;16.210;2023-10-31T01:45:19;17.60;99.90
45685;DHT22;46836;48.388;16.210;2023-10-31T01:47:48;17.60;99.90
45685;DHT22;46836;48.388;16.210;2023-10-31T01:50:17;17.60;99.90
45685;DHT22;46836;48.388;16.210;2023-10-31T01:52:45;17.60;99.90
45685;DHT22;46836;48.388;16.210;2023-10-31T01:55:13;17.60;99.90
45685;DHT22;46836;48.388;16.210;2023-10-31T01:57:42;17.50;99.90
45685;DHT22;46836;48.388;16.210;2023-10-31T02:00:10;17.50;99.90
45685;DHT22;46836;48.388;16.210;2023-10-31T02:02:38;17.50;99.90
45685;DHT22;46836;48.388;16.210;2023-10-31T02:05:09;17.50;99.90
45685;DHT22;46836;48.388;16.210;2023-10-31T02:07:36;17.40;99.90
45685;DHT22;46836;48.388;16.210;2023-10-31T02:10:03;17.40;99.90
45685;DHT22;46836;48.388;16.210;2023-10-31T02:12:37;17.40;99.90
45685;DHT22;46836;48.388;16.210;2023-10-31T02:15:06;17.40;99.90
45685;DHT22;46836;48.388;16.210;2023-10-31T02:17:33;17.40;99.90
45685;DHT22;46836;48.388;16.210;2023-10-31T02:20:01;17.40;99.90
45685;DHT22;46836;48.388;16.210;2023-10-31T02:22:28;17.40;99.90
45685;DHT22;46836;48.388;16.210;2023-10-31T02:24:55;17.40;99.90
45685;DHT22;46836;48.388;16.210;2023-10-31T02:27:23;17.30;99.90
45685;DHT22;46836;48.388;16.210;2023-10-31T02:29:50;17.30;99.90
45685;DHT22;46836;48.388;16.210;2023-10-31T02:32:17;17.30;99.90
45685;DHT22;46836;48.388;16.210;2023-10-31T02:34:45;17.30;99.90
45685;DHT22;46836;48.388;16.210;2023-10-31T02:37:12;17.30;99.90
45685;DHT22;46836;48.388;16.210;2023-10-31T02:39:40;17.30;99.90
45685;DHT22;46836;48.388;16.210;2023-10-31T02:42:07;17.30;99.90
45685;DHT22;46836;48.388;16.210;2023-10-31T02:44:34;17.40;99.90
45685;DHT22;46836;48.388;16.210;2023-10-31T02:47:01;17.40;99.90
45685;DHT22;46836;48.388;16.210;2023-10-31T02:49:29;17.40;99.90
45685;DHT22;46836;48.388;16.210;2023-10-31T02:51:56;17.30;99.90
45685;DHT22;46836;48.388;16.210;2023-10-31T02:54:23;17.30;99.90
45685;DHT22;46836;48.388;16.210;2023-10-31T02:56:50;17.30;99.90
45685;DHT22;46836;48.388;16.210;2023-10-31T02:59:17;17.20;99.90
45685;DHT22;46836;48.388;16.210;2023-10-31T03:01:44;17.10;99.90
45685;DHT22;46836;48.388;16.210;2023-10-31T03:04:12;17.00;99.90
45685;DHT22;46836;48.388;16.210;2023-10-31T03:06:39;16.90;99.90
45685;DHT22;46836;48.388;16.210;2023-10-31T03:09:06;16.70;99.90
45685;DHT22;46836;48.388;16.210;2023-10-31T03:11:34;16.60;99.90
45685;DHT22;46836;48.388;16.210;2023-10-31T03:14:01;16.40;99.90
45685;DHT22;46836;48.388;16.210;2023-10-31T03:16:28;16.40;99.90
45685;DHT22;46836;48.388;16.210;2023-10-31T03:18:56;16.30;99.90
45685;DHT22;46836;48.388;16.210;2023-10-31T03:21:23;16.20;99.90
45685;DHT22;46836;48.388;16.210;2023-10-31T03:23:51;16.20;99.90
45685;DHT22;46836;48.388;16.210;2023-10-31T03:26:22;16.10;99.90
45685;DHT22;46836;48.388;16.210;2023-10-31T03:28:50;16.00;99.90
45685;DHT22;46836;48.388;16.210;2023-10-31T03:31:17;16.00;99.90
45685;DHT22;46836;48.388;16.210;2023-10-31T03:33:44;15.90;99.90
45685;DHT22;46836;48.388;16.210;2023-10-31T03:36:11;15.80;99.90
45685;DHT22;46836;48.388;16.210;2023-10-31T03:38:38;15.70;99.90
45685;DHT22;46836;48.388;16.210;2023-10-31T03:41:06;15.70;99.90
45685;DHT22;46836;48.388;16.210;2023-10-31T03:43:33;15.60;99.90
45685;DHT22;46836;48.388;16.210;2023-10-31T03:46:00;15.50;99.90
45685;DHT22;46836;48.388;16.210;2023-10-31T03:48:27;15.50;99.90
45685;DHT22;46836;48.388;16.210;2023-10-31T03:50:54;15.40;99.90
45685;DHT22;46836;48.388;16.210;2023-10-31T03:53:21;15.40;99.90
45685;DHT22;46836;48.388;16.210;2023-10-31T03:55:49;15.40;99.90
45685;DHT22;46836;48.388;16.210;2023-10-31T03:58:16;15.40;99.90
45685;DHT22;46836;48.388;16.210;2023-10-31T04:00:43;15.30;99.90
45685;DHT22;46836;48.388;16.210;2023-10-31T04:03:10;15.30;99.90
45685;DHT22;46836;48.388;16.210;2023-10-31T04:05:37;15.30;99.90
45685;DHT22;46836;48.388;16.210;2023-10-31T04:08:05;15.30;99.90
45685;DHT22;46836;48.388;16.210;2023-10-31T04:10:32;15.20;99.90
45685;DHT22;46836;48.388;16.210;2023-10-31T04:12:59;15.30;99.90
45685;DHT22;46836;48.388;16.210;2023-10-31T04:15:26;15.20;99.90
45685;DHT22;46836;48.388;16.210;2023-10-31T04:17:53;15.20;99.90
45685;DHT22;46836;48.388;16.210;2023-10-31T04:20:21;15.20;99.90
45685;DHT22;46836;48.388;16.210;2023-10-31T04:22:48;15.30;99.90
45685;DHT22;46836;48.388;16.210;2023-10-31T04:25:15;15.20;99.90
45685;DHT22;46836;48.388;16.210;2023-10-31T04:27:42;15.20;99.90
45685;DHT22;46836;48.388;16.210;2023-10-31T04:30:10;15.20;99.90
45685;DHT22;46836;48.388;16.210;2023-10-31T04:32:41;15.20;99.90
45685;DHT22;46836;48.388;16.210;2023-10-31T04:35:08;15.20;99.90
45685;DHT22;46836;48.388;16.210;2023-10-31T04:37:35;15.30;99.90
45685;DHT22;46836;48.388;16.210;2023-10-31T04:40:03;15.20;99.90
45685;DHT22;46836;48.388;16.210;2023-10-31T04:42:32;15.20;99.90
45685;DHT22;46836;48.388;16.210;2023-10-31T04:45:00;15.20;99.90
45685;DHT22;46836;48.388;16.210;2023-10-31T04:47:27;15.20;99.90
45685;DHT22;46836;48.388;16.210;2023-10-31T04:49:55;15.20;99.90
45685;DHT22;46836;48.388;16.210;2023-10-31T04:52:22;15.20;99.90
45685;DHT22;46836;48.388;16.210;2023-10-31T04:54:52;15.20;99.90
45685;DHT22;46836;48.388;16.210;2023-10-31T04:57:20;15.20;99.90
45685;DHT22;46836;48.388;16.210;2023-10-31T04:59:47;15.20;99.90
45685;DHT22;46836;48.388;16.210;2023-10-31T05:02:14;15.20;99.90
45685;DHT22;46836;48.388;16.210;2023-10-31T05:04:43;15.20;99.90
45685;DHT22;46836;48.388;16.210;2023-10-31T05:07:10;15.20;99.90
45685;DHT22;46836;48.388;16.210;2023-10-31T05:09:41;15.20;99.90
45685;DHT22;46836;48.388;16.210;2023-10-31T05:12:12;15.20;99.90
45685;DHT22;46836;48.388;16.210;2023-10-31T05:14:40;15.20;99.90
45685;DHT22;46836;48.388;16.210;2023-10-31T05:17:08;15.20;99.90
45685;DHT22;46836;48.388;16.210;2023-10-31T05:19:35;15.20;99.90
45685;DHT22;46836;48.388;16.210;2023-10-31T05:22:02;15.20;99.90
45685;DHT22;46836;48.388;16.210;2023-10-31T05:24:29;15.20;99.90
45685;DHT22;46836;48.388;16.210;2023-10-31T05:26:58;15.10;99.90
45685;DHT22;46836;48.388;16.210;2023-10-31T05:29:25;15.10;99.90
45685;DHT22;46836;48.388;16.210;2023-10-31T05:31:52;15.00;99.90
45685;DHT22;46836;48.388;16.210;2023-10-31T05:34:19;15.00;99.90
45685;DHT22;46836;48.388;16.210;2023-10-31T05:36:48;15.00;99.90
45685;DHT22;46836;48.388;16.210;2023-10-31T05:39:15;15.00;99.90
45685;DHT22;46836;48.388;16.210;2023-10-31T05:41:42;15.00;99.90
45685;DHT22;46836;48.388;16.210;2023-10-31T05:44:09;14.90;99.90
45685;DHT22;46836;48.388;16.210;2023-10-31T05:46:38;14.90;99.90
45685;DHT22;46836;48.388;16.210;2023-10-31T05:49:10;14.80;99.90
45685;DHT22;46836;48.388;16.210;2023-10-31T05:51:37;14.80;99.90
45685;DHT22;46836;48.388;16.210;2023-10-31T05:54:07;14.80;99.90
45685;DHT22;46836;48.388;16.210;2023-10-31T05:56:34;14.80;99.90
45685;DHT22;46836;48.388;16.210;2023-10-31T05:59:02;14.80;99.90
45685;DHT22;46836;48.388;16.210;2023-10-31T06:01:29;14.80;99.90
45685;DHT22;46836;48.388;16.210;2023-10-31T06:03:56;14.80;99.90
45685;DHT22;46836;48.388;16.210;2023-10-31T06:06:23;14.80;99.90
45685;DHT22;46836;48.388;16.210;2023-10-31T06:08:50;14.80;99.90
45685;DHT22;46836;48.388;16.210;2023-10-31T06:11:18;14.80;99.90
45685;DHT22;46836;48.388;16.210;2023-10-31T06:13:45;14.80;99.90
45685;DHT22;46836;48.388;16.210;2023-10-31T06:16:14;14.70;99.90
45685;DHT22;46836;48.388;16.210;2023-10-31T06:18:42;14.70;99.90
45685;DHT22;46836;48.388;16.210;2023-10-31T06:21:09;14.70;99.90
45685;DHT22;46836;48.388;16.210;2023-10-31T06:23:37;14.70;99.90
45685;DHT22;46836;48.388;16.210;2023-10-31T06:26:05;14.70;99.90
45685;DHT22;46836;48.388;16.210;2023-10-31T06:28:33;14.70;99.90
45685;DHT22;46836;48.388;16.210;2023-10-31T06:31:07;14.70;99.90
45685;DHT22;46836;48.388;16.210;2023-10-31T06:33:34;14.60;99.90
45685;DHT22;46836;48.388;16.210;2023-10-31T06:36:01;14.60;99.90
45685;DHT22;46836;48.388;16.210;2023-10-31T06:38:29;14.60;99.90
45685;DHT22;46836;48.388;16.210;2023-10-31T06:40:56;14.50;99.90
45685;DHT22;46836;48.388;16.210;2023-10-31T06:43:24;14.50;99.90
45685;DHT22;46836;48.388;16.210;2023-10-31T06:45:51;14.50;99.90
45685;DHT22;46836;48.388;16.210;2023-10-31T06:48:18;14.50;99.90
45685;DHT22;46836;48.388;16.210;2023-10-31T06:50:45;14.50;99.90
45685;DHT22;46836;48.388;16.210;2023-10-31T06:53:12;14.40;99.90
45685;DHT22;46836;48.388;16.210;2023-10-31T06:55:39;14.40;99.90
45685;DHT22;46836;48.388;16.210;2023-10-31T06:58:06;14.40;99.90
45685;DHT22;46836;48.388;16.210;2023-10-31T07:00:34;14.40;99.90
45685;DHT22;46836;48.388;16.210;2023-10-31T07:03:01;14.50;99.90
45685;DHT22;46836;48.388;16.210;2023-10-31T07:05:33;14.50;99.90
45685;DHT22;46836;48.388;16.210;2023-10-31T07:08:01;14.50;99.90
45685;DHT22;46836;48.388;16.210;2023-10-31T07:10:30;14.50;99.90
45685;DHT22;46836;48.388;16.210;2023-10-31T07:12:57;14.50;99.90
45685;DHT22;46836;48.388;16.210;2023-10-31T07:15:26;14.60;99.90
45685;DHT22;46836;48.388;16.210;2023-10-31T07:17:53;14.60;99.90
45685;DHT22;46836;48.388;16.210;2023-10-31T07:20:20;14.60;99.90
45685;DHT22;46836;48.388;16.210;2023-10-31T07:22:47;14.60;99.90
45685;DHT22;46836;48.388;16.210;2023-10-31T07:25:14;14.60;99.90
45685;DHT22;46836;48.388;16.210;2023-10-31T07:27:42;14.60;99.90
45685;DHT22;46836;48.388;16.210;2023-10-31T07:30:10;14.60;99.90
45685;DHT22;46836;48.388;16.210;2023-10-31T07:32:37;14.60;99.90
45685;DHT22;46836;48.388;16.210;2023-10-31T07:35:05;14.60;99.90
45685;DHT22;46836;48.388;16.210;2023-10-31T07:37:32;14.70;99.90
45685;DHT22;46836;48.388;16.210;2023-10-31T07:40:03;14.80;99.90
45685;DHT22;46836;48.388;16.210;2023-10-31T07:42:31;14.80;99.90
45685;DHT22;46836;48.388;16.210;2023-10-31T07:44:58;15.00;99.90
45685;DHT22;46836;48.388;16.210;2023-10-31T07:47:25;15.00;99.90
45685;DHT22;46836;48.388;16.210;2023-10-31T07:49:52;15.10;99.90
45685;DHT22;46836;48.388;16.210;2023-10-31T07:52:20;15.10;99.90
45685;DHT22;46836;48.388;16.210;2023-10-31T07:54:47;15.10;99.90
45685;DHT22;46836;48.388;16.210;2023-10-31T07:57:14;15.20;99.90
45685;DHT22;46836;48.388;16.210;2023-10-31T07:59:42;15.20;99.90
45685;DHT22;46836;48.388;16.210;2023-10-31T08:02:09;15.20;99.90
45685;DHT22;46836;48.388;16.210;2023-10-31T08:04:36;15.20;99.90
45685;DHT22;46836;48.388;16.210;2023-10-31T08:07:04;15.20;99.90
45685;DHT22;46836;48.388;16.210;2023-10-31T08:09:31;15.10;99.90
45685;DHT22;46836;48.388;16.210;2023-10-31T08:11:58;15.00;99.90
45685;DHT22;46836;48.388;16.210;2023-10-31T08:14:25;14.90;99.90
45685;DHT22;46836;48.388;16.210;2023-10-31T08:16:52;14.80;99.90
45685;DHT22;46836;48.388;16.210;2023-10-31T08:19:20;14.80;99.90
45685;DHT22;46836;48.388;16.210;2023-10-31T08:21:47;14.70;99.90
45685;DHT22;46836;48.388;16.210;2023-10-31T08:24:14;14.60;99.90
45685;DHT22;46836;48.388;16.210;2023-10-31T08:26:42;14.70;99.90
45685;DHT22;46836;48.388;16.210;2023-10-31T08:29:09;14.70;99.90
45685;DHT22;46836;48.388;16.210;2023-10-31T08:31:36;14.70;99.90
45685;DHT22;46836;48.388;16.210;2023-10-31T08:34:03;14.70;99.90
45685;DHT22;46836;48.388;16.210;2023-10-31T08:36:30;14.80;99.90
45685;DHT22;46836;48.388;16.210;2023-10-31T08:38:58;14.80;99.90
45685;DHT22;46836;48.388;16.210;2023-10-31T08:41:25;14.80;99.90
45685;DHT22;46836;48.388;16.210;2023-10-31T08:43:52;14.80;99.90
45685;DHT22;46836;48.388;16.210;2023-10-31T08:46:20;14.80;99.90
45685;DHT22;46836;48.388;16.210;2023-10-31T08:48:48;14.80;99.90
45685;DHT22;46836;48.388;16.210;2023-10-31T08:51:15;14.80;99.90
45685;DHT22;46836;48.388;16.210;2023-10-31T08:53:43;14.80;99.90
45685;DHT22;46836;48.388;16.210;2023-10-31T08:56:10;14.70;99.90
45685;DHT22;46836;48.388;16.210;2023-10-31T08:58:37;14.70;99.90
45685;DHT22;46836;48.388;16.210;2023-10-31T09:01:04;14.70;99.90
45685;DHT22;46836;48.388;16.210;2023-10-31T09:03:31;14.70;99.90
45685;DHT22;46836;48.388;16.210;2023-10-31T09:05:58;14.70;99.90
45685;DHT22;46836;48.388;16.210;2023-10-31T09:08:26;14.70;99.90
45685;DHT22;46836;48.388;16.210;2023-10-31T09:10:53;14.70;99.90
45685;DHT22;46836;48.388;16.210;2023-10-31T09:13:20;14.80;99.90
45685;DHT22;46836;48.388;16.210;2023-10-31T09:15:47;15.00;99.90
45685;DHT22;46836;48.388;16.210;2023-10-31T09:18:17;15.10;99.90
45685;DHT22;46836;48.388;16.210;2023-10-31T09:20:44;15.20;99.90
45685;DHT22;46836;48.388;16.210;2023-10-31T09:23:11;15.20;99.90
45685;DHT22;46836;48.388;16.210;2023-10-31T09:25:38;15.20;99.90
45685;DHT22;46836;48.388;16.210;2023-10-31T09:28:05;15.20;99.90
45685;DHT22;46836;48.388;16.210;2023-10-31T09:30:33;15.20;99.90
45685;DHT22;46836;48.388;16.210;2023-10-31T09:33:00;15.30;99.90
45685;DHT22;46836;48.388;16.210;2023-10-31T09:35:27;15.30;99.90
45685;DHT22;46836;48.388;16.210;2023-10-31T09:37:55;15.40;99.90
45685;DHT22;46836;48.388;16.210;2023-10-31T09:40:22;15.40;99.90
45685;DHT22;46836;48.388;16.210;2023-10-31T09:42:49;15.50;99.90
45685;DHT22;46836;48.388;16.210;2023-10-31T09:45:17;15.40;99.90
45685;DHT22;46836;48.388;16.210;2023-10-31T09:47:45;15.50;99.90
45685;DHT22;46836;48.388;16.210;2023-10-31T09:50:12;15.40;99.90
45685;DHT22;46836;48.388;16.210;2023-10-31T09:52:39;15.40;99.90
45685;DHT22;46836;48.388;16.210;2023-10-31T09:55:07;15.40;99.90
45685;DHT22;46836;48.388;16.210;2023-10-31T09:57:35;15.40;99.90
45685;DHT22;46836;48.388;16.210;2023-10-31T10:00:02;15.40;99.90
45685;DHT22;46836;48.388;16.210;2023-10-31T10:02:29;15.30;99.90
45685;DHT22;46836;48.388;16.210;2023-10-31T10:04:57;15.30;99.90
45685;DHT22;46836;48.388;16.210;2023-10-31T10:07:25;15.20;99.90
45685;DHT22;46836;48.388;16.210;2023-10-31T10:09:56;15.20;99.90
45685;DHT22;46836;48.388;16.210;2023-10-31T10:12:23;15.20;99.90
45685;DHT22;46836;48.388;16.210;2023-10-31T10:14:51;15.00;99.90
45685;DHT22;46836;48.388;16.210;2023-10-31T10:17:23;14.90;99.90
45685;DHT22;46836;48.388;16.210;2023-10-31T10:20:11;14.80;99.90
45685;DHT22;46836;48.388;16.210;2023-10-31T10:22:42;14.70;99.90
45685;DHT22;46836;48.388;16.210;2023-10-31T10:25:14;14.60;99.90
45685;DHT22;46836;48.388;16.210;2023-10-31T10:27:46;14.50;99.90
45685;DHT22;46836;48.388;16.210;2023-10-31T10:30:14;14.40;99.90
45685;DHT22;46836;48.388;16.210;2023-10-31T10:32:41;14.30;99.90
45685;DHT22;46836;48.388;16.210;2023-10-31T10:35:09;14.10;99.90
45685;DHT22;46836;48.388;16.210;2023-10-31T10:37:38;14.00;99.90
45685;DHT22;46836;48.388;16.210;2023-10-31T10:40:11;13.90;99.90
45685;DHT22;46836;48.388;16.210;2023-10-31T10:42:44;13.70;99.90
45685;DHT22;46836;48.388;16.210;2023-10-31T10:45:15;13.70;99.90
45685;DHT22;46836;48.388;16.210;2023-10-31T10:47:49;13.60;99.90
45685;DHT22;46836;48.388;16.210;2023-10-31T10:50:19;13.50;99.90
45685;DHT22;46836;48.388;16.210;2023-10-31T10:53:23;13.40;99.90
45685;DHT22;46836;48.388;16.210;2023-10-31T10:56:00;13.40;99.90
45685;DHT22;46836;48.388;16.210;2023-10-31T10:58:41;13.30;99.90
45685;DHT22;46836;48.388;16.210;2023-10-31T11:01:11;13.20;99.90
45685;DHT22;46836;48.388;16.210;2023-10-31T11:03:39;13.10;99.90
45685;DHT22;46836;48.388;16.210;2023-10-31T11:06:07;13.10;99.90
45685;DHT22;46836;48.388;16.210;2023-10-31T11:08:35;13.10;99.90
45685;DHT22;46836;48.388;16.210;2023-10-31T11:11:04;13.00;99.90
45685;DHT22;46836;48.388;16.210;2023-10-31T11:13:32;13.00;99.90
45685;DHT22;46836;48.388;16.210;2023-10-31T11:16:04;12.90;99.90
45685;DHT22;46836;48.388;16.210;2023-10-31T11:18:33;12.80;99.90
45685;DHT22;46836;48.388;16.210;2023-10-31T11:21:00;12.80;99.90
45685;DHT22;46836;48.388;16.210;2023-10-31T11:23:28;12.80;99.90
45685;DHT22;46836;48.388;16.210;2023-10-31T11:25:55;12.70;99.90
45685;DHT22;46836;48.388;16.210;2023-10-31T11:28:22;12.70;99.90
45685;DHT22;46836;48.388;16.210;2023-10-31T11:30:50;12.60;99.90
45685;DHT22;46836;48.388;16.210;2023-10-31T11:33:21;12.60;99.90
45685;DHT22;46836;48.388;16.210;2023-10-31T11:35:51;12.50;99.90
45685;DHT22;46836;48.388;16.210;2023-10-31T11:38:36;12.50;99.90
45685;DHT22;46836;48.388;16.210;2023-10-31T11:41:05;12.40;99.90
45685;DHT22;46836;48.388;16.210;2023-10-31T11:46:27;12.40;99.90
45685;DHT22;46836;48.388;16.210;2023-10-31T11:48:56;12.30;99.90
45685;DHT22;46836;48.388;16.210;2023-10-31T11:51:24;12.30;99.90
45685;DHT22;46836;48.388;16.210;2023-10-31T11:53:52;12.30;99.90
45685;DHT22;46836;48.388;16.210;2023-10-31T11:56:22;12.30;99.90
45685;DHT22;46836;48.388;16.210;2023-10-31T11:59:02;12.30;99.90
45685;DHT22;46836;48.388;16.210;2023-10-31T12:01:30;12.30;99.90
45685;DHT22;46836;48.388;16.210;2023-10-31T12:03:57;12.30;99.90
45685;DHT22;46836;48.388;16.210;2023-10-31T12:06:25;12.30;99.90
45685;DHT22;46836;48.388;16.210;2023-10-31T12:08:53;12.30;99.90
45685;DHT22;46836;48.388;16.210;2023-10-31T12:11:22;12.30;99.90
45685;DHT22;46836;48.388;16.210;2023-10-31T12:14:01;12.40;99.90
45685;DHT22;46836;48.388;16.210;2023-10-31T12:16:30;12.50;99.90
45685;DHT22;46836;48.388;16.210;2023-10-31T12:19:01;12.50;99.90
45685;DHT22;46836;48.388;16.210;2023-10-31T12:21:45;12.50;99.90
45685;DHT22;46836;48.388;16.210;2023-10-31T12:24:15;12.60;99.90
45685;DHT22;46836;48.388;16.210;2023-10-31T12:26:44;12.60;99.90
45685;DHT22;46836;48.388;16.210;2023-10-31T12:29:12;12.60;99.90
45685;DHT22;46836;48.388;16.210;2023-10-31T12:31:50;12.60;99.90
45685;DHT22;46836;48.388;16.210;2023-10-31T12:34:23;12.50;99.90
45685;DHT22;46836;48.388;16.210;2023-10-31T12:36:52;12.50;99.90
45685;DHT22;46836;48.388;16.210;2023-10-31T12:39:25;12.50;99.90
45685;DHT22;46836;48.388;16.210;2023-10-31T12:41:53;12.50;99.90
45685;DHT22;46836;48.388;16.210;2023-10-31T12:44:25;12.50;99.90
45685;DHT22;46836;48.388;16.210;2023-10-31T12:46:56;12.50;99.90
45685;DHT22;46836;48.388;16.210;2023-10-31T12:49:23;12.50;99.90
45685;DHT22;46836;48.388;16.210;2023-10-31T12:52:02;12.40;99.90
45685;DHT22;46836;48.388;16.210;2023-10-31T12:54:35;12.40;99.90
45685;DHT22;46836;48.388;16.210;2023-10-31T12:57:07;12.40;99.90
45685;DHT22;46836;48.388;16.210;2023-10-31T12:59:35;12.40;99.90
45685;DHT22;46836;48.388;16.210;2023-10-31T13:02:07;12.30;99.90
45685;DHT22;46836;48.388;16.210;2023-10-31T13:04:36;12.30;99.90
45685;DHT22;46836;48.388;16.210;2023-10-31T13:07:06;12.40;99.90
45685;DHT22;46836;48.388;16.210;2023-10-31T13:09:36;12.40;99.90
45685;DHT22;46836;48.388;16.210;2023-10-31T13:12:07;12.40;99.90
45685;DHT22;46836;48.388;16.210;2023-10-31T13:14:35;12.50;99.90
45685;DHT22;46836;48.388;16.210;2023-10-31T13:17:05;12.50;99.90
45685;DHT22;46836;48.388;16.210;2023-10-31T13:19:32;12.50;99.90
45685;DHT22;46836;48.388;16.210;2023-10-31T13:21:59;12.50;99.90
45685;DHT22;46836;48.388;16.210;2023-10-31T13:24:26;12.50;99.90
45685;DHT22;46836;48.388;16.210;2023-10-31T13:26:54;12.50;99.90
45685;DHT22;46836;48.388;16.210;2023-10-31T13:29:21;12.50;99.90
45685;DHT22;46836;48.388;16.210;2023-10-31T13:31:49;12.50;99.90
45685;DHT22;46836;48.388;16.210;2023-10-31T13:34:16;12.50;99.90
45685;DHT22;46836;48.388;16.210;2023-10-31T13:36:43;12.50;99.90
45685;DHT22;46836;48.388;16.210;2023-10-31T13:39:11;12.50;99.90
45685;DHT22;46836;48.388;16.210;2023-10-31T13:41:38;12.50;99.90
45685;DHT22;46836;48.388;16.210;2023-10-31T13:44:06;12.40;99.90
45685;DHT22;46836;48.388;16.210;2023-10-31T13:46:33;12.40;99.90
45685;DHT22;46836;48.388;16.210;2023-10-31T13:49:00;12.30;99.90
45685;DHT22;46836;48.388;16.210;2023-10-31T13:51:28;12.30;99.90
45685;DHT22;46836;48.388;16.210;2023-10-31T13:53:55;12.30;99.90
45685;DHT22;46836;48.388;16.210;2023-10-31T13:56:22;12.30;99.90
45685;DHT22;46836;48.388;16.210;2023-10-31T13:58:49;12.30;99.90
45685;DHT22;46836;48.388;16.210;2023-10-31T14:01:16;12.20;99.90
45685;DHT22;46836;48.388;16.210;2023-10-31T14:03:44;12.20;99.90
45685;DHT22;46836;48.388;16.210;2023-10-31T14:06:12;12.20;99.90
45685;DHT22;46836;48.388;16.210;2023-10-31T14:08:41;12.20;99.90
45685;DHT22;46836;48.388;16.210;2023-10-31T14:11:10;12.20;99.90
45685;DHT22;46836;48.388;16.210;2023-10-31T14:13:37;12.20;99.90
45685;DHT22;46836;48.388;16.210;2023-10-31T14:16:06;12.20;99.90
45685;DHT22;46836;48.388;16.210;2023-10-31T14:18:34;12.20;99.90
45685;DHT22;46836;48.388;16.210;2023-10-31T14:21:01;12.10;99.90
45685;DHT22;46836;48.388;16.210;2023-10-31T14:23:28;12.10;99.90
45685;DHT22;46836;48.388;16.210;2023-10-31T14:25:55;12.10;99.90
45685;DHT22;46836;48.388;16.210;2023-10-31T14:28:22;12.10;99.90
45685;DHT22;46836;48.388;16.210;2023-10-31T14:30:50;12.10;99.90
45685;DHT22;46836;48.388;16.210;2023-10-31T14:33:19;12.10;99.90
45685;DHT22;46836;48.388;16.210;2023-10-31T14:35:46;12.00;99.90
45685;DHT22;46836;48.388;16.210;2023-10-31T14:38:13;12.00;99.90
45685;DHT22;46836;48.388;16.210;2023-10-31T14:40:41;12.00;99.90
45685;DHT22;46836;48.388;16.210;2023-10-31T14:43:08;12.00;99.90
45685;DHT22;46836;48.388;16.210;2023-10-31T14:45:35;12.00;99.90
45685;DHT22;46836;48.388;16.210;2023-10-31T14:48:02;12.00;99.90
45685;DHT22;46836;48.388;16.210;2023-10-31T14:50:29;11.90;99.90
45685;DHT22;46836;48.388;16.210;2023-10-31T14:52:56;11.90;99.90
45685;DHT22;46836;48.388;16.210;2023-10-31T14:55:23;11.90;99.90
45685;DHT22;46836;48.388;16.210;2023-10-31T14:57:51;11.90;99.90
45685;DHT22;46836;48.388;16.210;2023-10-31T15:00:18;11.90;99.90
45685;DHT22;46836;48.388;16.210;2023-10-31T15:02:45;11.90;99.90
45685;DHT22;46836;48.388;16.210;2023-10-31T15:05:13;11.90;99.90
45685;DHT22;46836;48.388;16.210;2023-10-31T15:07:40;11.90;99.90
45685;DHT22;46836;48.388;16.210;2023-10-31T15:10:08;11.90;99.90
45685;DHT22;46836;48.388;16.210;2023-10-31T15:12:35;11.90;99.90
45685;DHT22;46836;48.388;16.210;2023-10-31T15:15:02;11.90;99.90
45685;DHT22;46836;48.388;16.210;2023-10-31T15:17:29;11.80;99.90
45685;DHT22;46836;48.388;16.210;2023-10-31T15:19:57;11.80;99.90
45685;DHT22;46836;48.388;16.210;2023-10-31T15:22:24;11.80;99.90
45685;DHT22;46836;48.388;16.210;2023-10-31T15:24:51;11.80;99.90